sensor_id;sensor_type;location;lat;lon;timestamp;temperature;humidity
13944;DHT22;7044;53.286;8.534;2024-03-23T00:55:48;7.60;99.90
13944;DHT22;7044;53.286;8.534;2024-03-23T00:58:15;7.80;99.90
13944;DHT22;7044;53.286;8.534;2024-03-23T01:00:41;7.60;99.90
13944;DHT22;7044;53.286;8.534;2024-03-23T01:03:08;7.50;99.90
13944;DHT22;7044;53.286;8.534;2024-03-23T01:05:34;7.60;99.90
13944;DHT22;7044;53.286;8.534;2024-03-23T01:08:00;7.90;99.90
13944;DHT22;7044;53.286;8.534;2024-03-23T01:10:28;7.50;99.90
13944;DHT22;7044;53.286;8.534;2024-03-23T01:15:22;7.50;99.90
13944;DHT22;7044;53.286;8.534;2024-03-23T01:17:49;8.60;99.90
13944;DHT22;7044;53.286;8.534;2024-03-23T01:20:15;7.40;99.90
13944;DHT22;7044;53.286;8.534;2024-03-23T01:22:42;7.50;99.90
13944;DHT22;7044;53.286;8.534;2024-03-23T01:25:08;7.50;99.90
13944;DHT22;7044;53.286;8.534;2024-03-23T01:27:36;7.50;99.90
13944;DHT22;7044;53.286;8.534;2024-03-23T01:30:02;7.50;99.90
13944;DHT22;7044;53.286;8.534;2024-03-23T01:32:29;8.30;99.90
13944;DHT22;7044;53.286;8.534;2024-03-23T01:34:55;7.40;99.90
13944;DHT22;7044;53.286;8.534;2024-03-23T01:37:22;7.40;99.90
13944;DHT22;7044;53.286;8.534;2024-03-23T01:39:47;6.00;99.90
13944;DHT22;7044;53.286;8.534;2024-03-23T01:42:14;7.50;99.90
13944;DHT22;7044;53.286;8.534;2024-03-23T01:44:42;7.40;99.90
13944;DHT22;7044;53.286;8.534;2024-03-23T01:47:09;7.40;99.90
13944;DHT22;7044;53.286;8.534;2024-03-23T01:49:35;7.50;99.90
13944;DHT22;7044;53.286;8.534;2024-03-23T01:52:02;7.40;99.90
13944;DHT22;7044;53.286;8.534;2024-03-23T01:54:29;7.40;99.90
13944;DHT22;7044;53.286;8.534;2024-03-23T01:56:56;7.40;99.90
13944;DHT22;7044;53.286;8.534;2024-03-23T01:59:23;7.40;99.90
13944;DHT22;7044;53.286;8.534;2024-03-23T02:01:51;7.40;99.90
13944;DHT22;7044;53.286;8.534;2024-03-23T02:04:17;7.40;99.90
13944;DHT22;7044;53.286;8.534;2024-03-23T02:06:45;7.40;99.90
13944;DHT22;7044;53.286;8.534;2024-03-23T02:09:11;7.30;99.90
13944;DHT22;7044;53.286;8.534;2024-03-23T02:11:39;7.40;99.90
13944;DHT22;7044;53.286;8.534;2024-03-23T02:14:05;6.70;99.90
13944;DHT22;7044;53.286;8.534;2024-03-23T02:16:33;7.30;99.90
13944;DHT22;7044;53.286;8.534;2024-03-23T02:19:00;7.40;99.90
13944;DHT22;7044;53.286;8.534;2024-03-23T02:21:27;7.30;99.90
13944;DHT22;7044;53.286;8.534;2024-03-23T02:23:55;7.20;99.90
13944;DHT22;7044;53.286;8.534;2024-03-23T02:26:22;7.30;99.90
13944;DHT22;7044;53.286;8.534;2024-03-23T02:31:15;7.30;99.90
13944;DHT22;7044;53.286;8.534;2024-03-23T02:33:41;7.20;99.90
13944;DHT22;7044;53.286;8.534;2024-03-23T02:36:08;7.20;99.90
13944;DHT22;7044;53.286;8.534;2024-03-23T02:38:34;7.20;99.90
13944;DHT22;7044;53.286;8.534;2024-03-23T02:41:05;7.30;99.90
13944;DHT22;7044;53.286;8.534;2024-03-23T02:43:31;7.20;99.90
13944;DHT22;7044;53.286;8.534;2024-03-23T02:45:58;7.20;99.90
13944;DHT22;7044;53.286;8.534;2024-03-23T02:48:24;9.50;99.90
13944;DHT22;7044;53.286;8.534;2024-03-23T02:50:51;7.20;99.90
13944;DHT22;7044;53.286;8.534;2024-03-23T02:53:16;7.20;99.90
13944;DHT22;7044;53.286;8.534;2024-03-23T02:55:44;7.20;99.90
13944;DHT22;7044;53.286;8.534;2024-03-23T02:58:11;7.00;99.90
13944;DHT22;7044;53.286;8.534;2024-03-23T03:00:38;7.20;99.90
13944;DHT22;7044;53.286;8.534;2024-03-23T03:03:04;7.10;99.90
13944;DHT22;7044;53.286;8.534;2024-03-23T03:05:32;7.10;99.90
13944;DHT22;7044;53.286;8.534;2024-03-23T03:07:58;7.00;99.90
13944;DHT22;7044;53.286;8.534;2024-03-23T03:10:25;7.00;99.90
13944;DHT22;7044;53.286;8.534;2024-03-23T03:12:51;7.10;99.90
13944;DHT22;7044;53.286;8.534;2024-03-23T03:15:19;7.10;99.90
13944;DHT22;7044;53.286;8.534;2024-03-23T03:20:13;6.40;99.90
13944;DHT22;7044;53.286;8.534;2024-03-23T03:22:39;7.00;99.90
13944;DHT22;7044;53.286;8.534;2024-03-23T03:25:06;7.00;99.90
13944;DHT22;7044;53.286;8.534;2024-03-23T03:27:33;7.00;99.90
13944;DHT22;7044;53.286;8.534;2024-03-23T03:29:59;6.70;99.90
13944;DHT22;7044;53.286;8.534;2024-03-23T03:32:29;7.00;99.90
13944;DHT22;7044;53.286;8.534;2024-03-23T03:34:55;7.00;99.90
13944;DHT22;7044;53.286;8.534;2024-03-23T03:37:21;7.00;99.90
13944;DHT22;7044;53.286;8.534;2024-03-23T03:39:48;7.00;99.90
13944;DHT22;7044;53.286;8.534;2024-03-23T03:42:15;6.90;99.90
13944;DHT22;7044;53.286;8.534;2024-03-23T03:44:41;7.00;99.90
13944;DHT22;7044;53.286;8.534;2024-03-23T03:47:07;5.70;99.90
13944;DHT22;7044;53.286;8.534;2024-03-23T03:49:35;7.00;99.90
13944;DHT22;7044;53.286;8.534;2024-03-23T03:52:01;6.90;99.90
13944;DHT22;7044;53.286;8.534;2024-03-23T03:54:28;6.90;99.90
13944;DHT22;7044;53.286;8.534;2024-03-23T03:56:54;6.90;99.90
13944;DHT22;7044;53.286;8.534;2024-03-23T03:59:21;6.90;99.90
13944;DHT22;7044;53.286;8.534;2024-03-23T04:01:47;6.80;99.90
13944;DHT22;7044;53.286;8.534;2024-03-23T04:04:13;7.60;99.90
13944;DHT22;7044;53.286;8.534;2024-03-23T04:06:43;6.90;99.90
13944;DHT22;7044;53.286;8.534;2024-03-23T04:09:10;6.90;99.90
13944;DHT22;7044;53.286;8.534;2024-03-23T04:11:36;6.90;99.90
13944;DHT22;7044;53.286;8.534;2024-03-23T04:14:02;6.90;99.90
13944;DHT22;7044;53.286;8.534;2024-03-23T04:16:29;6.60;99.90
13944;DHT22;7044;53.286;8.534;2024-03-23T04:18:56;6.80;99.90
13944;DHT22;7044;53.286;8.534;2024-03-23T04:21:22;6.70;99.90
13944;DHT22;7044;53.286;8.534;2024-03-23T04:23:50;6.80;99.90
13944;DHT22;7044;53.286;8.534;2024-03-23T04:26:16;6.80;99.90
13944;DHT22;7044;53.286;8.534;2024-03-23T04:28:43;6.70;99.90
13944;DHT22;7044;53.286;8.534;2024-03-23T04:31:09;7.30;99.90
13944;DHT22;7044;53.286;8.534;2024-03-23T04:33:36;6.50;99.90
13944;DHT22;7044;53.286;8.534;2024-03-23T04:36:02;6.70;99.90
13944;DHT22;7044;53.286;8.534;2024-03-23T04:38:29;7.10;99.90
13944;DHT22;7044;53.286;8.534;2024-03-23T04:40:58;6.70;99.90
13944;DHT22;7044;53.286;8.534;2024-03-23T04:43:26;6.80;99.90
13944;DHT22;7044;53.286;8.534;2024-03-23T04:45:53;6.70;99.90
13944;DHT22;7044;53.286;8.534;2024-03-23T04:48:21;6.20;99.90
13944;DHT22;7044;53.286;8.534;2024-03-23T04:50:48;6.60;99.90
13944;DHT22;7044;53.286;8.534;2024-03-23T04:53:14;6.60;99.90
13944;DHT22;7044;53.286;8.534;2024-03-23T04:55:41;6.60;99.90
13944;DHT22;7044;53.286;8.534;2024-03-23T04:58:09;6.60;99.90
13944;DHT22;7044;53.286;8.534;2024-03-23T05:00:35;7.40;99.90
13944;DHT22;7044;53.286;8.534;2024-03-23T05:03:02;6.50;99.90
13944;DHT22;7044;53.286;8.534;2024-03-23T05:05:29;6.50;99.90
13944;DHT22;7044;53.286;8.534;2024-03-23T05:07:56;6.50;99.90
13944;DHT22;7044;53.286;8.534;2024-03-23T05:10:22;6.50;99.90
13944;DHT22;7044;53.286;8.534;2024-03-23T05:12:48;6.50;99.90
13944;DHT22;7044;53.286;8.534;2024-03-23T05:15:16;6.50;99.90
13944;DHT22;7044;53.286;8.534;2024-03-23T05:17:42;6.40;99.90
13944;DHT22;7044;53.286;8.534;2024-03-23T05:20:09;6.40;99.90
13944;DHT22;7044;53.286;8.534;2024-03-23T05:25:04;6.40;99.90
13944;DHT22;7044;53.286;8.534;2024-03-23T05:27:32;6.40;99.90
13944;DHT22;7044;53.286;8.534;2024-03-23T05:29:58;6.40;99.90
13944;DHT22;7044;53.286;8.534;2024-03-23T05:32:27;6.40;99.90
13944;DHT22;7044;53.286;8.534;2024-03-23T05:34:53;6.30;99.90
13944;DHT22;7044;53.286;8.534;2024-03-23T05:37:22;6.30;99.90
13944;DHT22;7044;53.286;8.534;2024-03-23T05:39:48;6.30;99.90
13944;DHT22;7044;53.286;8.534;2024-03-23T05:42:15;6.30;99.90
13944;DHT22;7044;53.286;8.534;2024-03-23T05:44:43;6.30;99.90
13944;DHT22;7044;53.286;8.534;2024-03-23T05:47:10;6.30;99.90
13944;DHT22;7044;53.286;8.534;2024-03-23T05:49:37;6.30;99.90
13944;DHT22;7044;53.286;8.534;2024-03-23T05:52:04;6.30;99.90
13944;DHT22;7044;53.286;8.534;2024-03-23T05:54:30;6.40;99.90
13944;DHT22;7044;53.286;8.534;2024-03-23T05:56:57;6.30;99.90
13944;DHT22;7044;53.286;8.534;2024-03-23T05:59:23;6.30;99.90
13944;DHT22;7044;53.286;8.534;2024-03-23T06:04:16;6.20;99.90
13944;DHT22;7044;53.286;8.534;2024-03-23T06:06:44;6.30;99.90
13944;DHT22;7044;53.286;8.534;2024-03-23T06:09:10;6.20;99.90
13944;DHT22;7044;53.286;8.534;2024-03-23T06:11:38;6.20;99.90
13944;DHT22;7044;53.286;8.534;2024-03-23T06:14:04;6.30;99.90
13944;DHT22;7044;53.286;8.534;2024-03-23T06:16:31;6.30;99.90
13944;DHT22;7044;53.286;8.534;2024-03-23T06:18:57;6.30;99.90
13944;DHT22;7044;53.286;8.534;2024-03-23T06:21:24;6.30;99.90
13944;DHT22;7044;53.286;8.534;2024-03-23T06:23:52;6.40;99.90
13944;DHT22;7044;53.286;8.534;2024-03-23T06:26:19;6.40;99.90
13944;DHT22;7044;53.286;8.534;2024-03-23T06:28:45;6.30;99.90
13944;DHT22;7044;53.286;8.534;2024-03-23T06:31:12;6.40;99.90
13944;DHT22;7044;53.286;8.534;2024-03-23T06:33:38;6.40;99.90
13944;DHT22;7044;53.286;8.534;2024-03-23T06:36:06;6.40;99.90
13944;DHT22;7044;53.286;8.534;2024-03-23T06:38:33;6.40;99.90
13944;DHT22;7044;53.286;8.534;2024-03-23T06:41:04;7.60;99.90
13944;DHT22;7044;53.286;8.534;2024-03-23T06:43:30;6.50;99.90
13944;DHT22;7044;53.286;8.534;2024-03-23T06:45:57;6.60;99.90
13944;DHT22;7044;53.286;8.534;2024-03-23T06:48:22;6.50;99.90
13944;DHT22;7044;53.286;8.534;2024-03-23T06:53:16;6.60;99.90
13944;DHT22;7044;53.286;8.534;2024-03-23T06:55:50;6.60;99.90
13944;DHT22;7044;53.286;8.534;2024-03-23T06:58:18;6.70;99.90
13944;DHT22;7044;53.286;8.534;2024-03-23T07:00:45;6.60;99.90
13944;DHT22;7044;53.286;8.534;2024-03-23T07:03:11;6.70;99.90
13944;DHT22;7044;53.286;8.534;2024-03-23T07:05:38;7.10;99.90
13944;DHT22;7044;53.286;8.534;2024-03-23T07:08:04;6.80;99.90
13944;DHT22;7044;53.286;8.534;2024-03-23T07:10:31;6.80;99.90
13944;DHT22;7044;53.286;8.534;2024-03-23T07:12:57;6.80;99.90
13944;DHT22;7044;53.286;8.534;2024-03-23T07:15:25;6.70;99.90
13944;DHT22;7044;53.286;8.534;2024-03-23T07:17:51;6.70;99.90
13944;DHT22;7044;53.286;8.534;2024-03-23T07:20:18;6.90;99.90
13944;DHT22;7044;53.286;8.534;2024-03-23T07:22:45;6.90;99.90
13944;DHT22;7044;53.286;8.534;2024-03-23T07:25:12;7.00;99.90
13944;DHT22;7044;53.286;8.534;2024-03-23T07:30:07;7.00;99.90
13944;DHT22;7044;53.286;8.534;2024-03-23T07:32:35;7.00;99.90
13944;DHT22;7044;53.286;8.534;2024-03-23T07:35:02;7.10;99.90
13944;DHT22;7044;53.286;8.534;2024-03-23T07:37:29;7.20;99.90
13944;DHT22;7044;53.286;8.534;2024-03-23T07:39:56;7.20;99.90
13944;DHT22;7044;53.286;8.534;2024-03-23T07:42:23;7.20;99.90
13944;DHT22;7044;53.286;8.534;2024-03-23T07:44:52;7.30;99.90
13944;DHT22;7044;53.286;8.534;2024-03-23T07:47:17;7.30;99.90
13944;DHT22;7044;53.286;8.534;2024-03-23T07:49:46;7.40;99.90
13944;DHT22;7044;53.286;8.534;2024-03-23T07:54:39;7.40;99.90
13944;DHT22;7044;53.286;8.534;2024-03-23T07:57:05;7.40;99.90
13944;DHT22;7044;53.286;8.534;2024-03-23T07:59:32;7.40;99.90
13944;DHT22;7044;53.286;8.534;2024-03-23T08:01:59;7.50;99.90
13944;DHT22;7044;53.286;8.534;2024-03-23T08:04:27;7.50;99.90
13944;DHT22;7044;53.286;8.534;2024-03-23T08:06:54;7.60;99.90
13944;DHT22;7044;53.286;8.534;2024-03-23T08:09:21;7.60;99.90
13944;DHT22;7044;53.286;8.534;2024-03-23T08:11:47;7.60;99.90
13944;DHT22;7044;53.286;8.534;2024-03-23T08:14:13;7.70;99.90
13944;DHT22;7044;53.286;8.534;2024-03-23T08:16:39;7.70;99.90
13944;DHT22;7044;53.286;8.534;2024-03-23T08:19:07;7.80;99.90
13944;DHT22;7044;53.286;8.534;2024-03-23T08:21:34;7.80;99.90
13944;DHT22;7044;53.286;8.534;2024-03-23T08:24:02;7.90;99.90
13944;DHT22;7044;53.286;8.534;2024-03-23T08:26:28;7.80;99.90
13944;DHT22;7044;53.286;8.534;2024-03-23T08:28:55;7.90;99.90
13944;DHT22;7044;53.286;8.534;2024-03-23T08:31:21;8.30;99.90
13944;DHT22;7044;53.286;8.534;2024-03-23T08:33:48;8.40;99.90
13944;DHT22;7044;53.286;8.534;2024-03-23T08:36:14;8.30;99.90
13944;DHT22;7044;53.286;8.534;2024-03-23T08:38:41;8.40;99.90
13944;DHT22;7044;53.286;8.534;2024-03-23T08:41:09;8.30;99.90
13944;DHT22;7044;53.286;8.534;2024-03-23T08:43:37;8.30;99.90
13944;DHT22;7044;53.286;8.534;2024-03-23T08:46:04;8.30;99.90
13944;DHT22;7044;53.286;8.534;2024-03-23T08:48:31;8.20;99.90
13944;DHT22;7044;53.286;8.534;2024-03-23T08:51:01;8.30;99.90
13944;DHT22;7044;53.286;8.534;2024-03-23T08:53:29;8.20;99.90
13944;DHT22;7044;53.286;8.534;2024-03-23T08:55:55;8.40;99.90
13944;DHT22;7044;53.286;8.534;2024-03-23T08:58:24;8.30;99.90
13944;DHT22;7044;53.286;8.534;2024-03-23T09:03:17;8.30;99.90
13944;DHT22;7044;53.286;8.534;2024-03-23T09:05:43;8.40;99.90
13944;DHT22;7044;53.286;8.534;2024-03-23T09:10:38;8.40;99.90
13944;DHT22;7044;53.286;8.534;2024-03-23T09:13:05;8.40;99.90
13944;DHT22;7044;53.286;8.534;2024-03-23T09:15:33;8.60;99.90
13944;DHT22;7044;53.286;8.534;2024-03-23T09:18:00;8.50;99.90
13944;DHT22;7044;53.286;8.534;2024-03-23T09:20:26;8.60;99.90
13944;DHT22;7044;53.286;8.534;2024-03-23T09:25:19;8.70;99.90
13944;DHT22;7044;53.286;8.534;2024-03-23T09:27:46;8.70;99.90
13944;DHT22;7044;53.286;8.534;2024-03-23T09:30:13;8.60;99.90
13944;DHT22;7044;53.286;8.534;2024-03-23T09:32:43;8.60;99.90
13944;DHT22;7044;53.286;8.534;2024-03-23T09:35:08;8.50;99.90
13944;DHT22;7044;53.286;8.534;2024-03-23T09:37:35;8.50;99.90
13944;DHT22;7044;53.286;8.534;2024-03-23T09:40:02;8.40;99.90
13944;DHT22;7044;53.286;8.534;2024-03-23T09:42:30;8.40;99.90
13944;DHT22;7044;53.286;8.534;2024-03-23T09:44:57;7.80;99.90
13944;DHT22;7044;53.286;8.534;2024-03-23T09:47:24;8.50;99.90
13944;DHT22;7044;53.286;8.534;2024-03-23T09:49:52;7.50;99.90
13944;DHT22;7044;53.286;8.534;2024-03-23T09:52:19;9.60;99.90
13944;DHT22;7044;53.286;8.534;2024-03-23T09:54:45;8.70;99.90
13944;DHT22;7044;53.286;8.534;2024-03-23T09:57:11;7.00;99.90
13944;DHT22;7044;53.286;8.534;2024-03-23T09:59:37;8.70;99.90
13944;DHT22;7044;53.286;8.534;2024-03-23T10:02:05;8.60;99.90
13944;DHT22;7044;53.286;8.534;2024-03-23T10:04:36;8.70;99.90
13944;DHT22;7044;53.286;8.534;2024-03-23T10:07:12;8.80;99.90
13944;DHT22;7044;53.286;8.534;2024-03-23T10:09:38;8.80;99.90
13944;DHT22;7044;53.286;8.534;2024-03-23T10:12:09;8.90;99.90
13944;DHT22;7044;53.286;8.534;2024-03-23T10:14:35;9.10;99.90
13944;DHT22;7044;53.286;8.534;2024-03-23T10:17:15;9.10;99.90
13944;DHT22;7044;53.286;8.534;2024-03-23T10:19:43;9.10;99.90
13944;DHT22;7044;53.286;8.534;2024-03-23T10:22:14;8.90;99.90
13944;DHT22;7044;53.286;8.534;2024-03-23T10:24:40;8.30;99.90
13944;DHT22;7044;53.286;8.534;2024-03-23T10:27:07;9.20;99.90
13944;DHT22;7044;53.286;8.534;2024-03-23T10:29:32;9.20;99.90
13944;DHT22;7044;53.286;8.534;2024-03-23T10:32:08;9.20;99.90
13944;DHT22;7044;53.286;8.534;2024-03-23T10:34:34;10.60;99.90
13944;DHT22;7044;53.286;8.534;2024-03-23T10:37:02;8.90;99.90
13944;DHT22;7044;53.286;8.534;2024-03-23T10:39:31;9.00;99.90
13944;DHT22;7044;53.286;8.534;2024-03-23T10:42:01;8.80;99.90
13944;DHT22;7044;53.286;8.534;2024-03-23T10:44:28;8.80;99.90
13944;DHT22;7044;53.286;8.534;2024-03-23T10:46:57;8.80;99.90
13944;DHT22;7044;53.286;8.534;2024-03-23T10:49:26;8.90;99.90
13944;DHT22;7044;53.286;8.534;2024-03-23T10:51:56;9.00;99.90
13944;DHT22;7044;53.286;8.534;2024-03-23T10:54:24;9.10;99.90
13944;DHT22;7044;53.286;8.534;2024-03-23T10:56:56;9.20;99.90
13944;DHT22;7044;53.286;8.534;2024-03-23T10:59:23;5.70;99.90
13944;DHT22;7044;53.286;8.534;2024-03-23T11:01:54;8.90;99.90
13944;DHT22;7044;53.286;8.534;2024-03-23T11:04:29;8.50;99.90
13944;DHT22;7044;53.286;8.534;2024-03-23T11:06:56;8.20;99.90
13944;DHT22;7044;53.286;8.534;2024-03-23T11:09:41;8.30;99.90
13944;DHT22;7044;53.286;8.534;2024-03-23T11:12:30;8.40;99.90
13944;DHT22;7044;53.286;8.534;2024-03-23T11:15:00;8.40;99.90
13944;DHT22;7044;53.286;8.534;2024-03-23T11:17:27;8.50;99.90
13944;DHT22;7044;53.286;8.534;2024-03-23T11:19:54;8.70;99.90
13944;DHT22;7044;53.286;8.534;2024-03-23T11:22:41;8.60;99.90
13944;DHT22;7044;53.286;8.534;2024-03-23T11:25:18;8.80;99.90
13944;DHT22;7044;53.286;8.534;2024-03-23T11:27:48;9.00;99.90
13944;DHT22;7044;53.286;8.534;2024-03-23T11:30:19;9.00;99.90
13944;DHT22;7044;53.286;8.534;2024-03-23T11:32:46;9.00;99.90
13944;DHT22;7044;53.286;8.534;2024-03-23T11:35:26;9.10;99.90
13944;DHT22;7044;53.286;8.534;2024-03-23T11:38:06;9.40;99.90
13944;DHT22;7044;53.286;8.534;2024-03-23T11:40:34;9.30;99.90
13944;DHT22;7044;53.286;8.534;2024-03-23T11:43:02;9.50;99.90
13944;DHT22;7044;53.286;8.534;2024-03-23T11:45:34;9.50;99.90
13944;DHT22;7044;53.286;8.534;2024-03-23T11:48:05;8.70;99.90
13944;DHT22;7044;53.286;8.534;2024-03-23T11:50:34;7.30;99.90
13944;DHT22;7044;53.286;8.534;2024-03-23T11:53:11;6.90;99.90
13944;DHT22;7044;53.286;8.534;2024-03-23T11:55:40;6.90;99.90
13944;DHT22;7044;53.286;8.534;2024-03-23T11:58:07;6.80;99.90
13944;DHT22;7044;53.286;8.534;2024-03-23T12:03:01;6.00;99.90
13944;DHT22;7044;53.286;8.534;2024-03-23T12:05:28;6.60;99.90
13944;DHT22;7044;53.286;8.534;2024-03-23T12:07:55;6.50;99.90
13944;DHT22;7044;53.286;8.534;2024-03-23T12:10:21;7.40;99.90
13944;DHT22;7044;53.286;8.534;2024-03-23T12:12:59;6.50;99.90
13944;DHT22;7044;53.286;8.534;2024-03-23T12:15:27;6.40;99.90
13944;DHT22;7044;53.286;8.534;2024-03-23T12:18:06;6.50;99.90
13944;DHT22;7044;53.286;8.534;2024-03-23T12:20:33;6.50;99.90
13944;DHT22;7044;53.286;8.534;2024-03-23T12:23:08;6.60;99.90
13944;DHT22;7044;53.286;8.534;2024-03-23T12:25:35;6.70;99.90
13944;DHT22;7044;53.286;8.534;2024-03-23T12:28:01;6.80;99.90
13944;DHT22;7044;53.286;8.534;2024-03-23T12:30:30;6.90;99.90
13944;DHT22;7044;53.286;8.534;2024-03-23T12:35:23;7.30;99.90
13944;DHT22;7044;53.286;8.534;2024-03-23T12:37:49;7.20;99.90
13944;DHT22;7044;53.286;8.534;2024-03-23T12:40:15;7.10;99.90
13944;DHT22;7044;53.286;8.534;2024-03-23T12:42:41;7.20;99.90
13944;DHT22;7044;53.286;8.534;2024-03-23T12:45:08;7.30;99.90
13944;DHT22;7044;53.286;8.534;2024-03-23T12:47:35;7.50;99.90
13944;DHT22;7044;53.286;8.534;2024-03-23T12:50:03;7.70;99.90
13944;DHT22;7044;53.286;8.534;2024-03-23T12:52:29;7.70;99.90
13944;DHT22;7044;53.286;8.534;2024-03-23T12:54:56;8.10;99.90
13944;DHT22;7044;53.286;8.534;2024-03-23T12:57:23;8.10;99.90
13944;DHT22;7044;53.286;8.534;2024-03-23T12:59:51;7.90;99.90
13944;DHT22;7044;53.286;8.534;2024-03-23T13:02:18;7.50;99.90
13944;DHT22;7044;53.286;8.534;2024-03-23T13:04:49;7.30;99.90
13944;DHT22;7044;53.286;8.534;2024-03-23T13:07:16;7.10;99.90
13944;DHT22;7044;53.286;8.534;2024-03-23T13:09:43;7.00;99.90
13944;DHT22;7044;53.286;8.534;2024-03-23T13:12:10;7.10;99.90
13944;DHT22;7044;53.286;8.534;2024-03-23T13:17:06;7.90;99.90
13944;DHT22;7044;53.286;8.534;2024-03-23T13:19:32;7.20;99.90
13944;DHT22;7044;53.286;8.534;2024-03-23T13:22:01;7.20;99.90
13944;DHT22;7044;53.286;8.534;2024-03-23T13:24:27;7.80;99.90
13944;DHT22;7044;53.286;8.534;2024-03-23T13:26:55;7.20;99.90
13944;DHT22;7044;53.286;8.534;2024-03-23T13:29:22;7.40;99.90
13944;DHT22;7044;53.286;8.534;2024-03-23T13:31:50;7.50;99.90
13944;DHT22;7044;53.286;8.534;2024-03-23T13:34:17;7.60;99.90
13944;DHT22;7044;53.286;8.534;2024-03-23T13:36:45;7.80;99.90
13944;DHT22;7044;53.286;8.534;2024-03-23T13:39:14;6.20;99.90
13944;DHT22;7044;53.286;8.534;2024-03-23T13:41:42;8.60;99.90
13944;DHT22;7044;53.286;8.534;2024-03-23T13:44:09;8.80;99.90
13944;DHT22;7044;53.286;8.534;2024-03-23T13:46:37;8.80;99.90
13944;DHT22;7044;53.286;8.534;2024-03-23T13:49:03;6.20;99.90
13944;DHT22;7044;53.286;8.534;2024-03-23T13:51:30;8.50;99.90
13944;DHT22;7044;53.286;8.534;2024-03-23T13:53:56;8.90;99.90
13944;DHT22;7044;53.286;8.534;2024-03-23T13:56:27;8.90;99.90
13944;DHT22;7044;53.286;8.534;2024-03-23T13:58:54;8.80;99.90
13944;DHT22;7044;53.286;8.534;2024-03-23T14:01:21;8.80;99.90
13944;DHT22;7044;53.286;8.534;2024-03-23T14:03:47;8.60;99.90
13944;DHT22;7044;53.286;8.534;2024-03-23T14:06:14;8.50;99.90
13944;DHT22;7044;53.286;8.534;2024-03-23T14:08:40;8.60;99.90
13944;DHT22;7044;53.286;8.534;2024-03-23T14:11:07;8.60;99.90
13944;DHT22;7044;53.286;8.534;2024-03-23T14:13:35;8.60;99.90
13944;DHT22;7044;53.286;8.534;2024-03-23T14:16:02;8.60;99.90
13944;DHT22;7044;53.286;8.534;2024-03-23T14:18:28;8.50;99.90
13944;DHT22;7044;53.286;8.534;2024-03-23T14:20:57;8.30;99.90
13944;DHT22;7044;53.286;8.534;2024-03-23T14:23:25;8.00;99.90
13944;DHT22;7044;53.286;8.534;2024-03-23T14:25:53;7.70;99.90
13944;DHT22;7044;53.286;8.534;2024-03-23T14:30:48;6.70;99.90
13944;DHT22;7044;53.286;8.534;2024-03-23T14:33:15;6.40;99.90
13944;DHT22;7044;53.286;8.534;2024-03-23T14:35:42;6.20;99.90
13944;DHT22;7044;53.286;8.534;2024-03-23T14:38:08;6.40;99.90
13944;DHT22;7044;53.286;8.534;2024-03-23T14:40:35;5.20;99.90
13944;DHT22;7044;53.286;8.534;2024-03-23T14:43:01;6.40;99.90
13944;DHT22;7044;53.286;8.534;2024-03-23T14:45:28;6.70;99.90
13944;DHT22;7044;53.286;8.534;2024-03-23T14:47:55;6.80;99.90
13944;DHT22;7044;53.286;8.534;2024-03-23T14:50:23;7.00;99.90
13944;DHT22;7044;53.286;8.534;2024-03-23T14:52:49;7.20;99.90
13944;DHT22;7044;53.286;8.534;2024-03-23T14:55:17;7.20;99.90
13944;DHT22;7044;53.286;8.534;2024-03-23T14:57:43;7.40;99.90
13944;DHT22;7044;53.286;8.534;2024-03-23T15:00:10;7.40;99.90
13944;DHT22;7044;53.286;8.534;2024-03-23T15:02:37;7.50;99.90
13944;DHT22;7044;53.286;8.534;2024-03-23T15:05:06;7.70;99.90
13944;DHT22;7044;53.286;8.534;2024-03-23T15:07:35;6.40;99.90
13944;DHT22;7044;53.286;8.534;2024-03-23T15:10:02;8.30;99.90
13944;DHT22;7044;53.286;8.534;2024-03-23T15:12:30;7.70;99.90
13944;DHT22;7044;53.286;8.534;2024-03-23T15:14:58;7.60;99.90
13944;DHT22;7044;53.286;8.534;2024-03-23T15:17:24;7.60;99.90
13944;DHT22;7044;53.286;8.534;2024-03-23T15:19:51;7.70;99.90
13944;DHT22;7044;53.286;8.534;2024-03-23T15:22:19;8.00;99.90
13944;DHT22;7044;53.286;8.534;2024-03-23T15:24:46;7.70;99.90
13944;DHT22;7044;53.286;8.534;2024-03-23T15:27:11;7.70;99.90
13944;DHT22;7044;53.286;8.534;2024-03-23T15:29:38;7.70;99.90
13944;DHT22;7044;53.286;8.534;2024-03-23T15:32:04;7.60;99.90
13944;DHT22;7044;53.286;8.534;2024-03-23T15:34:31;7.60;99.90
13944;DHT22;7044;53.286;8.534;2024-03-23T15:36:57;7.70;99.90
13944;DHT22;7044;53.286;8.534;2024-03-23T15:39:25;7.60;99.90
13944;DHT22;7044;53.286;8.534;2024-03-23T15:41:51;7.50;99.90
13944;DHT22;7044;53.286;8.534;2024-03-23T15:44:20;7.60;99.90
13944;DHT22;7044;53.286;8.534;2024-03-23T15:46:46;7.60;99.90
13944;DHT22;7044;53.286;8.534;2024-03-23T15:49:13;7.50;99.90
13944;DHT22;7044;53.286;8.534;2024-03-23T15:51:39;7.50;99.90
13944;DHT22;7044;53.286;8.534;2024-03-23T15:54:07;7.40;99.90
13944;DHT22;7044;53.286;8.534;2024-03-23T15:56:34;7.50;99.90
13944;DHT22;7044;53.286;8.534;2024-03-23T15:59:01;7.50;99.90
13944;DHT22;7044;53.286;8.534;2024-03-23T16:01:31;7.50;99.90
13944;DHT22;7044;53.286;8.534;2024-03-23T16:03:59;8.40;99.90
13944;DHT22;7044;53.286;8.534;2024-03-23T16:06:25;7.40;99.90
13944;DHT22;7044;53.286;8.534;2024-03-23T16:08:52;7.30;99.90
13944;DHT22;7044;53.286;8.534;2024-03-23T16:11:18;7.40;99.90
13944;DHT22;7044;53.286;8.534;2024-03-23T16:13:47;7.40;99.90
13944;DHT22;7044;53.286;8.534;2024-03-23T16:16:13;7.40;99.90
13944;DHT22;7044;53.286;8.534;2024-03-23T16:21:09;7.60;99.90
13944;DHT22;7044;53.286;8.534;2024-03-23T16:23:36;7.70;99.90
13944;DHT22;7044;53.286;8.534;2024-03-23T16:26:03;7.60;99.90
13944;DHT22;7044;53.286;8.534;2024-03-23T16:28:31;7.70;99.90
13944;DHT22;7044;53.286;8.534;2024-03-23T16:30:59;7.80;99.90
13944;DHT22;7044;53.286;8.534;2024-03-23T16:33:27;8.70;99.90
13944;DHT22;7044;53.286;8.534;2024-03-23T16:35:57;7.80;99.90
13944;DHT22;7044;53.286;8.534;2024-03-23T16:38:25;7.90;99.90
13944;DHT22;7044;53.286;8.534;2024-03-23T16:40:57;7.90;99.90
13944;DHT22;7044;53.286;8.534;2024-03-23T16:43:25;7.50;99.90
13944;DHT22;7044;53.286;8.534;2024-03-23T16:45:52;8.30;99.90
13944;DHT22;7044;53.286;8.534;2024-03-23T16:48:21;8.10;99.90
13944;DHT22;7044;53.286;8.534;2024-03-23T16:50:47;8.00;99.90
13944;DHT22;7044;53.286;8.534;2024-03-23T16:53:14;7.90;99.90
13944;DHT22;7044;53.286;8.534;2024-03-23T16:55:40;8.00;99.90
13944;DHT22;7044;53.286;8.534;2024-03-23T16:58:06;8.00;99.90
13944;DHT22;7044;53.286;8.534;2024-03-23T17:00:33;5.00;99.90
13944;DHT22;7044;53.286;8.534;2024-03-23T17:03:00;7.80;99.90
13944;DHT22;7044;53.286;8.534;2024-03-23T17:05:28;7.90;99.90
13944;DHT22;7044;53.286;8.534;2024-03-23T17:07:55;8.10;99.90
13944;DHT22;7044;53.286;8.534;2024-03-23T17:10:22;7.80;99.90
13944;DHT22;7044;53.286;8.534;2024-03-23T17:12:49;7.70;99.90
13944;DHT22;7044;53.286;8.534;2024-03-23T17:15:15;7.70;99.90
13944;DHT22;7044;53.286;8.534;2024-03-23T17:17:47;7.70;99.90
13944;DHT22;7044;53.286;8.534;2024-03-23T17:20:13;7.60;99.90
13944;DHT22;7044;53.286;8.534;2024-03-23T17:22:42;7.60;99.90
13944;DHT22;7044;53.286;8.534;2024-03-23T17:25:08;7.60;99.90
13944;DHT22;7044;53.286;8.534;2024-03-23T17:27:36;7.60;99.90
13944;DHT22;7044;53.286;8.534;2024-03-23T17:30:02;7.60;99.90
13944;DHT22;7044;53.286;8.534;2024-03-23T17:32:29;7.60;99.90
13944;DHT22;7044;53.286;8.534;2024-03-23T17:34:56;6.90;99.90
13944;DHT22;7044;53.286;8.534;2024-03-23T17:37:23;7.50;99.90